Dawson Creek Airport
CYDQ : now visible

Airfield :











YOU CAN JOIN US ON...

 
LOGIN :

Register | Disclaimer

   EN    FR    IT 

 









Legend :    VFR   Marginal VFR   IFR   Intensive IFR   Very Intensive IFR
Visi :
Ceiling :
>= 8 km
>= 3000ft
5 to 8 km
1000 to 3000 ft
1500m to 5 km
500 to 1000 ft
800 to 1500m
200 to 500 ft
< 800m
< 200 ft
Symbols :   Thunderstorms  Fog  Heavy snow  Heavy precipitations  Wind > 20 kt






- Airport Elevation : 2148 ft
- IATA code : YDQ


CYDQ - Dawson Creek

CURRENT METAR :
  • 270400Z AUTO 27002KT 9SM -SN BKN028 M19/M21 A2994 RMK SLP206

EXPIRED METARs :
  • 270300Z AUTO 22004KT 9SM -SN CLR M19/M22 A2993 RMK SLP203
  • 270255Z AUTO 22004KT 6SM -SN CLR M19/M22 A2993 RMK SLP202
  • 270244Z AUTO 23002KT 3SM -SN SCT013 M17/M19 A2993 RMK SLP200
  • 270224Z AUTO 00000KT 2SM -SN OVC013 M16/M19 A2993 RMK SLP197
  • 270200Z AUTO 00000KT 1 1/2SM -SN OVC013 M16/M19 A2993 RMK SLP198

TAF TAF CYDQ
Valid from the 27 at 01:00 until the 27 at 05:00 UTC


270038Z 2701/2705 VRB03KT 1SM -SN OVC012
TEMPO 2701/2703 6SM -SN SCT030 OVC060
FM270300 VRB03KT P6SM -SN SCT030 OVC050
TEMPO 2703/2705 3SM -SN OVC030 RMK FCST BASED ON AUTO OBS. NXT FCST WILL BE ISSUED AT 271245Z
CZEG FIR / North America



MET'MAP, your aeronautical weather chart ! - Copyright ORBIFLY December 2007 - Disclaimer

ORBIFLY MET'MAP TEAM :

Programming & Development : Alexandra Zaïnal
Concept & original design : Baudouin d'Aumeries
Assistance for programming : Marc-Olivier Méhu
Technical & hardware support : Manuel Goepfert

Contact : metmap@orbifly.com




SOURCES & CREDITS :

   NOAA       Earth
Advisory